Flight Track Log - Related Links

Times and Time Zones

All times are in EDT time to prevent confusion due to time zone crossing. See the EJM826 flight status page for this flight to view local times or setup timezone preferences in your user account.

Time Position Orientation Groundspeed Altitude Reporting Facility
EDT Latitude Longitude Course Direction KTS MPH feet Rate Location/Type
Sun 12:29:43 PM 29.6267 -95.2614 79° East 167 192 700  Level Houston Center
Sun 12:30:25 PM 29.5917 -95.2464 160° South 198 228 2,200 2,346 Climbing Houston Center
Sun 12:31:56 PM 29.5806 -95.1492 97° East 217 250 5,900 2,353 Climbing Houston Center
Sun 12:32:58 PM 29.5950 -95.0856 75° East 210 242 8,200 2,032 Climbing Houston Center
Sun 12:34:00 PM 29.6069 -95.0158 79° East 222 255 10,100 1,887 Climbing Houston Center
Sun 12:35:00 PM 29.7522 -94.7398 79° East  Level Estimated
Sun 12:35:02 PM 29.6192 -94.9392 80° East 241 277 12,100  Level Houston Center
Sun 12:36:04 PM 29.6347 -94.8578 78° East 258 297 13,700 1,306 Climbing Houston Center
Sun 12:37:06 PM 29.6500 -94.7653 79° East 295 339 14,800 1,597 Climbing Houston Center
Sun 12:38:08 PM 29.6689 -94.6503 79° East 305 351 17,000 1,790 Climbing Houston Center
Sun 12:39:10 PM 29.6861 -94.5517 79° East 314 361 18,500 1,366 Climbing Houston Center
Sun 12:40:11 PM 29.7022 -94.4517 79° East 319 367 19,800 1,268 Climbing Houston Center
Sun 12:41:13 PM 29.7192 -94.3461 80° East 332 382 21,100 1,210 Climbing Houston Center
Sun 12:42:15 PM 29.7092 -94.2389 96° East 339 390 22,300 1,161 Climbing Houston Center
Sun 12:43:17 PM 29.6964 -94.1275 97° East 347 399 23,500 1,210 Climbing Houston Center
Sun 12:44:19 PM 29.6858 -93.9931 95° East 355 409 24,800 1,113 Climbing Houston Center
Sun 12:45:21 PM 29.6850 -93.8783 90° East 361 415 25,800 823 Climbing Houston Center
Sun 12:46:23 PM 29.6831 -93.7636 91° East 361 415 26,500 732 Climbing Houston Center
Sun 12:47:24 PM 29.6825 -93.6408 90° East 374 430 27,300 732 Climbing Houston Center
Sun 12:48:26 PM 29.6803 -93.5178 91° East 385 443 28,000 532 Climbing Houston Center
Sun 12:49:28 PM 29.6781 -93.3936 91° East 389 448 28,400 484 Climbing Houston Center
Sun 12:50:30 PM 29.6767 -93.2428 91° East 394 453 29,000 537 Climbing Houston Center
Sun 12:51:31 PM 29.6631 -93.1192 97° East 392 451 29,500 488 Climbing Houston Center
Sun 12:52:33 PM 29.6692 -92.9956 87° East 401 461 30,000 484 Climbing Houston Center
Sun 12:53:35 PM 29.7100 -92.8750 69° East 408 470 30,500 484 Climbing Houston Center
Sun 12:54:37 PM 29.7503 -92.7550 69° East 405 466 31,000 488 Climbing Houston Center
Sun 12:55:38 PM 29.7911 -92.6344 69° East 406 467 31,500 341 Climbing Houston Center
Sun 12:56:40 PM 29.8400 -92.4900 69° East 408 470 31,700 145 Climbing Houston Center
Sun 12:57:42 PM 29.8833 -92.3633 68° East 423 487 31,800 146 Climbing Houston Center
Sun 12:58:43 PM 29.9258 -92.2361 69° East 428 493 32,000 244 Climbing Houston Center
Sun 12:59:45 PM 29.9689 -92.1075 69° East 429 494 32,300 -145 Climbing Houston Center
Sun 01:00:47 PM 30.0114 -91.9764 69° East 437 503 31,700 -1,161 Descending Houston Center
Sun 01:01:49 PM 30.0572 -91.8422 68° East 447 514 29,900 -1,805 Descending Houston Center
Sun 01:02:50 PM 30.1047 -91.6944 70° East 449 517 28,000 -2,390 Descending Houston Center
Sun 01:03:52 PM 30.1522 -91.5617 67° East 449 517 25,000 -3,242 Descending Houston Center
Sun 01:04:54 PM 30.1861 -91.4256 74° East 445 512 21,300 -3,317 Descending Houston Center
Sun 01:05:55 PM 30.2100 -91.2961 78° East 423 487 18,200 -3,415 Descending Houston Center
Sun 01:06:57 PM 30.2725 -91.1608 62° Northeast 401 461 14,300 -3,242 Descending Houston Center
Sun 01:07:59 PM 30.3122 -91.0533 67° East 371 427 11,500 -2,444 Descending Houston Center
Sun 01:08:45 PM 30.3386 -90.9717 69° East 327 376 9,900 -1,895 Descending Houston Center
Sun 01:09:34 PM 30.3639 -90.9008 68° East 302 348 8,500 -2,073 Descending Houston Center
Sun 01:10:35 PM 30.3911 -90.8156 70° East 276 318 6,100 -2,380 Descending Houston Center
Sun 01:11:35 PM 30.4200 -90.7303 69° East 282 325 3,700 -2,000 Descending Houston Center
Sun 01:12:05 PM 30.4322 -90.6961 67° East 285 328 3,100 -689 Descending Houston Center
Sun 01:12:36 PM 30.4472 -90.6472 70° East 248 285 3,000 -194 Descending Houston Center
Sun 01:13:07 PM 30.4572 -90.6219 65° Northeast 266 306 2,900 -516 Descending Houston Center
Sun 01:14:09 PM 30.4819 -90.5494 68° East 252 290 2,200 -488 Descending Houston Center
Sun 01:15:10 PM 30.5053 -90.4575 74° East 248 285 1,900 -439 Descending Houston Center
Sun 01:16:12 PM 30.5350 -90.3958 61° Northeast 243 280 1,300 -484 Descending Houston Center
Sun 01:17:14 PM 30.5675 -90.4364 313° West 220 253 900 -242 Descending Houston Center
Sun 01:18:16 PM 30.5367 -90.4822 232° Southwest 212 244 800 -97 Descending Houston Center

Login

Don't have an account? Register now (free) for customized features, flight alerts, and more!